Time;durP1;ratioP1;P1;durP2;ratioP2;P2;SDS_P1;SDS_P2;PMS_P1;PMS_P2;Temp;Humidity;BMP_temperature;BMP_pressure;BME280_temperature;BME280_humidity;BME280_pressure;Samples;Min_cycle;Max_cycle;Signal;HPM_P1;HPM_P2
2023/04/21 00:00:20;;;;;;;0.37;0.30;;;;;;;12.58;74.95;94927.44;5132456;27;20488;-59
2023/04/21 00:02:48;;;;;;;0.50;0.50;;;;;;;12.21;76.40;94937.31;5132324;27;20474;-59
2023/04/21 00:05:17;;;;;;;1.00;0.90;;;;;;;11.98;77.69;94934.47;5132544;27;20823;-59
2023/04/21 00:07:46;;;;;;;0.30;0.20;;;;;;;11.76;79.79;94931.56;5132926;28;20457;-59
2023/04/21 00:10:14;;;;;;;0.80;0.70;;;;;;;11.90;79.11;94932.44;5131775;28;20431;-59
2023/04/21 00:12:43;;;;;;;0.63;0.63;;;;;;;11.82;80.37;94926.97;5132081;27;20443;-59
2023/04/21 00:15:12;;;;;;;0.80;0.80;;;;;;;11.95;80.14;94932.38;5131679;28;20456;-59
2023/04/21 00:17:41;;;;;;;0.47;0.30;;;;;;;11.93;80.29;94915.16;5132223;28;20466;-59
2023/04/21 00:20:10;;;;;;;0.40;0.40;;;;;;;12.13;79.37;94927.34;5131701;28;20466;-59
2023/04/21 00:22:38;;;;;;;0.40;0.30;;;;;;;12.05;80.77;94921.59;5132195;27;20438;-59
2023/04/21 00:25:07;;;;;;;0.53;0.53;;;;;;;12.03;80.47;94920.31;5132050;27;20458;-59
2023/04/21 00:27:36;;;;;;;0.43;0.33;;;;;;;11.86;81.56;94906.75;5132277;27;20430;-59
2023/04/21 00:30:05;;;;;;;0.40;0.40;;;;;;;11.75;82.63;94926.53;5131887;28;20470;-59
2023/04/21 00:32:35;;;;;;;1.07;0.50;;;;;;;11.71;82.38;94920.22;5131656;28;20431;-59
2023/04/21 00:35:04;;;;;;;0.40;0.30;;;;;;;11.66;82.62;94920.25;5132314;28;20439;-59
2023/04/21 00:37:32;;;;;;;0.30;0.20;;;;;;;11.75;81.17;94913.25;5132143;28;20934;-60
2023/04/21 00:40:00;;;;;;;0.40;0.30;;;;;;;10.75;81.03;94751.63;5132289;28;20437;-60
2023/04/21 00:42:28;;;;;;;0.50;0.30;;;;;;;11.82;80.13;94913.69;5132132;28;20518;-59
2023/04/21 00:44:57;;;;;;;0.30;0.20;;;;;;;11.77;79.55;94905.78;5132441;27;20435;-59
2023/04/21 00:47:26;;;;;;;0.43;0.40;;;;;;;11.66;79.39;94914.97;5132317;28;20430;-59
2023/04/21 00:49:57;;;;;;;1.23;0.83;;;;;;;11.41;81.29;94913.38;5132216;28;20810;-58
2023/04/21 00:52:27;;;;;;;0.40;0.30;;;;;;;11.56;81.26;94907.13;5132221;28;20431;-59
2023/04/21 00:54:55;;;;;;;0.43;0.33;;;;;;;11.64;81.67;94909.16;5134730;27;20463;-59
2023/04/21 00:57:25;;;;;;;0.40;0.30;;;;;;;11.56;80.72;94905.22;5135856;27;20533;-59
2023/04/21 00:59:53;;;;;;;2.20;0.40;;;;;;;11.56;80.21;94899.94;5136021;27;20526;-59
2023/04/21 01:02:22;;;;;;;0.40;0.30;;;;;;;11.53;81.38;94897.88;5135730;27;20434;-59
2023/04/21 01:04:51;;;;;;;0.30;0.30;;;;;;;11.47;81.62;94899.00;5135845;27;20431;-59
2023/04/21 01:07:21;;;;;;;0.40;0.30;;;;;;;11.42;81.63;94899.06;5136420;27;20539;-59
2023/04/21 01:09:49;;;;;;;0.40;0.30;;;;;;;11.12;83.25;94886.94;5135734;27;20449;-59
2023/04/21 01:12:17;;;;;;;1.37;0.83;;;;;;;11.06;84.96;94901.31;5136169;27;20442;-58
2023/04/21 01:14:46;;;;;;;0.40;0.30;;;;;;;11.11;84.79;94906.56;5122147;27;20432;-59
2023/04/21 01:17:17;;;;;;;0.33;0.27;;;;;;;11.06;83.07;94890.72;5135470;27;20430;-59
2023/04/21 01:19:46;;;;;;;0.37;0.27;;;;;;;11.25;82.11;94902.19;5135689;27;20596;-59
2023/04/21 01:22:17;;;;;;;0.47;0.40;;;;;;;11.02;82.91;94883.59;5133207;27;20470;-59
2023/04/21 01:24:47;;;;;;;0.40;0.30;;;;;;;10.87;83.06;94879.25;5132426;27;21126;-59
2023/04/21 01:27:18;;;;;;;0.43;0.30;;;;;;;11.20;82.11;94906.75;5135629;27;20503;-59
2023/04/21 01:29:48;;;;;;;0.30;0.20;;;;;;;11.27;81.56;94905.34;5135010;27;20438;-59
2023/04/21 01:32:19;;;;;;;1.90;0.30;;;;;;;10.42;84.17;94907.00;5135479;27;20442;-59
2023/04/21 01:34:48;;;;;;;0.40;0.30;;;;;;;10.36;87.86;94904.63;5135362;27;20435;-58
2023/04/21 01:37:21;;;;;;;0.40;0.37;;;;;;;10.04;88.89;94881.28;5135153;27;20469;-58
2023/04/21 01:39:53;;;;;;;1.03;0.83;;;;;;;10.01;94.52;94917.06;5135423;27;21037;-59
2023/04/21 01:42:23;;;;;;;0.50;0.40;;;;;;;10.48;100.00;94905.84;5134929;27;20474;-59
2023/04/21 01:44:53;;;;;;;0.87;0.87;;;;;;;9.88;94.37;94917.66;5135170;27;20456;-59
2023/04/21 01:47:23;;;;;;;0.63;0.63;;;;;;;9.92;94.99;94888.78;5135099;27;20451;-59
2023/04/21 01:49:51;;;;;;;0.50;0.43;;;;;;;9.71;92.99;94874.09;5134770;27;20435;-59
2023/04/21 01:52:21;;;;;;;0.40;0.40;;;;;;;10.20;93.14;94910.06;5135355;27;20532;-60
2023/04/21 01:54:49;;;;;;;0.30;0.20;;;;;;;10.29;90.24;94867.09;5134845;27;20434;-59
2023/04/21 01:57:18;;;;;;;0.30;0.20;;;;;;;10.73;87.32;94912.78;5134734;27;20958;-59
2023/04/21 01:59:47;;;;;;;0.43;0.37;;;;;;;10.75;86.82;94905.38;5135309;27;20894;-59
2023/04/21 02:02:15;;;;;;;0.40;0.40;;;;;;;10.44;86.11;94856.38;5134369;27;21034;-59
2023/04/21 02:04:43;;;;;;;0.40;0.40;;;;;;;10.82;86.00;94909.28;5134259;27;20446;-59
2023/04/21 02:07:12;;;;;;;0.53;0.37;;;;;;;10.84;86.24;94909.78;5133710;27;20433;-59
2023/04/21 02:09:41;;;;;;;0.50;0.50;;;;;;;10.36;87.58;94912.59;5134623;27;20438;-59
2023/04/21 02:12:10;;;;;;;0.40;0.30;;;;;;;10.02;88.82;94839.19;5101103;28;20481;-59
2023/04/21 02:14:38;;;;;;;0.40;0.30;;;;;;;10.16;87.82;94855.28;5128477;27;20470;-59
2023/04/21 02:17:07;;;;;;;0.40;0.30;;;;;;;10.60;87.83;94905.50;5134319;27;20474;-59
2023/04/21 02:19:36;;;;;;;0.77;0.30;;;;;;;10.72;86.09;94905.91;5134494;27;20526;-59
2023/04/21 02:22:05;;;;;;;0.30;0.20;;;;;;;10.75;85.76;94900.06;5134502;27;20478;-59
2023/04/21 02:24:34;;;;;;;0.30;0.23;;;;;;;10.63;84.69;94903.06;5133778;27;20470;-59
2023/04/21 02:27:04;;;;;;;0.40;0.30;;;;;;;10.37;85.32;94901.72;5134382;27;20445;-59
2023/04/21 02:29:33;;;;;;;3.60;0.50;;;;;;;10.39;85.95;94904.09;5133998;27;20806;-59
2023/04/21 02:32:01;;;;;;;1.20;0.60;;;;;;;9.83;88.93;94872.69;5134060;27;20524;-59
2023/04/21 02:34:49;;;;;;;0.60;0.60;;;;;;;10.00;92.16;94902.22;5133730;27;20442;-59
2023/04/21 02:37:18;;;;;;;0.80;0.80;;;;;;;10.11;93.14;94909.03;5134270;27;20466;-59
2023/04/21 02:39:46;;;;;;;0.70;0.40;;;;;;;10.27;90.64;94904.44;5134037;27;20446;-59
2023/04/21 02:42:16;;;;;;;0.30;0.20;;;;;;;10.31;88.20;94892.22;5133680;27;20470;-59
2023/04/21 02:44:44;;;;;;;0.50;0.50;;;;;;;10.41;87.13;94901.94;5107538;27;20438;-59
2023/04/21 02:47:15;;;;;;;0.40;0.30;;;;;;;10.45;86.41;94893.16;5133508;27;20431;-59
2023/04/21 02:49:44;;;;;;;0.40;0.30;;;;;;;10.53;85.94;94902.38;5133480;27;20971;-59
2023/04/21 02:52:12;;;;;;;1.00;0.93;;;;;;;10.57;85.44;94904.22;5133702;27;20443;-59
2023/04/21 02:54:40;;;;;;;1.03;0.90;;;;;;;10.34;84.98;94907.56;5133903;27;20437;-59
2023/04/21 02:57:09;;;;;;;0.40;0.40;;;;;;;10.06;88.19;94910.94;5133812;27;20431;-59
2023/04/21 02:59:39;;;;;;;0.40;0.30;;;;;;;10.25;87.70;94911.88;5133654;27;20862;-59
2023/04/21 03:02:07;;;;;;;0.60;0.40;;;;;;;10.38;86.04;94905.16;5132919;27;20510;-59
2023/04/21 03:04:36;;;;;;;0.60;0.33;;;;;;;10.48;86.04;94910.34;5133471;27;20953;-59
2023/04/21 03:07:04;;;;;;;0.40;0.40;;;;;;;10.46;86.38;94909.84;5133013;27;20870;-59
2023/04/21 03:09:33;;;;;;;0.40;0.37;;;;;;;10.46;85.40;94913.31;5133625;27;20439;-59
2023/04/21 03:12:02;;;;;;;0.90;0.90;;;;;;;9.43;85.15;94762.66;5133130;27;20527;-59
2023/04/21 03:14:30;;;;;;;0.40;0.30;;;;;;;10.35;85.03;94903.84;5133401;27;20438;-59
2023/04/21 03:17:00;;;;;;;0.50;0.40;;;;;;;9.99;85.06;94847.69;5132924;27;20435;-59
2023/04/21 03:19:28;;;;;;;0.40;0.30;;;;;;;10.28;85.71;94919.28;5133325;27;20514;-59
2023/04/21 03:21:56;;;;;;;0.37;0.23;;;;;;;10.30;85.59;94921.63;5133167;27;20466;-60
2023/04/21 03:24:25;;;;;;;0.73;0.73;;;;;;;10.35;84.59;94924.28;5132729;27;20484;-59
2023/04/21 03:26:54;;;;;;;1.53;1.50;;;;;;;10.35;85.26;94926.91;5133204;27;20476;-59
2023/04/21 03:29:22;;;;;;;1.43;0.40;;;;;;;9.95;85.84;94870.50;5132626;27;20446;-59
2023/04/21 03:31:50;;;;;;;0.90;0.50;;;;;;;10.10;87.19;94922.53;5132641;27;20958;-59
2023/04/21 03:34:20;;;;;;;0.43;0.30;;;;;;;9.95;88.87;94917.34;5132327;27;21025;-59
2023/04/21 03:36:49;;;;;;;0.63;0.63;;;;;;;9.87;90.12;94921.38;5132841;27;20517;-59
2023/04/21 03:39:17;;;;;;;1.90;0.60;;;;;;;9.82;90.62;94931.19;5133253;27;20456;-59
2023/04/21 03:41:47;;;;;;;0.40;0.40;;;;;;;9.74;91.27;94924.59;5132655;27;20469;-59
2023/04/21 03:44:16;;;;;;;0.50;0.40;;;;;;;9.78;91.12;94925.66;5132503;27;20466;-58
2023/04/21 03:46:44;;;;;;;0.40;0.40;;;;;;;9.29;92.16;94874.56;5132904;27;20522;-59
2023/04/21 03:49:12;;;;;;;0.63;0.63;;;;;;;9.65;93.33;94933.41;5132503;27;20469;-58
2023/04/21 03:51:42;;;;;;;0.80;0.80;;;;;;;9.54;94.33;94932.66;5132648;27;20485;-58
2023/04/21 03:54:10;;;;;;;1.33;1.30;;;;;;;9.51;95.29;94933.22;5105570;27;20933;-57
2023/04/21 03:56:38;;;;;;;1.77;0.50;;;;;;;9.73;93.00;94938.91;5132607;27;20958;-57
2023/04/21 03:59:07;;;;;;;1.37;1.37;;;;;;;9.57;95.21;94934.75;5132977;27;20427;-58
2023/04/21 04:01:35;;;;;;;0.40;0.35;;;;;;;9.69;96.30;94939.75;5132390;27;20444;-57
2023/04/21 04:04:04;;;;;;;0.70;0.40;;;;;;;9.79;95.69;94935.16;5132677;27;20445;-58
2023/04/21 04:06:32;;;;;;;1.07;1.07;;;;;;;9.52;100.00;94950.66;5132553;27;20442;-57
2023/04/21 04:09:03;;;;;;;1.13;0.60;;;;;;;9.37;100.00;94950.72;5132756;28;20451;-58
2023/04/21 04:11:32;;;;;;;1.63;1.40;;;;;;;9.16;100.00;94934.13;5132166;28;20435;-58
2023/04/21 04:14:00;;;;;;;1.90;1.90;;;;;;;8.67;100.00;94941.91;5132181;28;20435;-58
2023/04/21 04:16:28;;;;;;;2.47;1.40;;;;;;;8.87;100.00;94967.50;5132445;28;20920;-58
2023/04/21 04:21:42;;;;;;;0.63;0.60;;;;;;;9.78;100.00;94969.84;5132246;27;20448;-58
2023/04/21 04:24:12;;;;;;;0.53;0.53;;;;;;;9.94;100.00;94963.44;5131875;28;20857;-57
2023/04/21 04:26:41;;;;;;;0.70;0.70;;;;;;;9.87;100.00;94974.31;5131818;28;20427;-57
2023/04/21 04:29:10;;;;;;;0.87;0.87;;;;;;;9.84;100.00;94969.53;5133500;27;20470;-57
2023/04/21 04:31:38;;;;;;;1.70;1.60;;;;;;;9.72;100.00;94984.97;5136657;27;20427;-57
2023/04/21 04:34:08;;;;;;;2.60;0.93;;;;;;;9.57;100.00;94974.44;5135774;27;20525;-57
2023/04/21 04:36:36;;;;;;;0.53;0.53;;;;;;;7.90;100.00;94680.88;5136570;27;20438;-57
2023/04/21 04:39:05;;;;;;;0.40;0.40;;;;;;;9.90;100.00;94973.75;5135754;27;20536;-58
2023/04/21 04:41:38;;;;;;;0.60;0.60;;;;;;;10.06;100.00;94972.63;5136326;27;20438;-58
2023/04/21 04:44:06;;;;;;;0.90;0.90;;;;;;;10.11;100.00;94961.19;5135649;27;20524;-57
2023/04/21 04:46:35;;;;;;;1.27;1.17;;;;;;;9.99;100.00;94966.03;5136130;27;20435;-57
2023/04/21 04:49:04;;;;;;;3.00;0.43;;;;;;;9.73;100.00;94951.34;5135692;27;20995;-57
2023/04/21 04:51:32;;;;;;;0.50;0.50;;;;;;;10.06;100.00;94972.63;5136018;27;20439;-57
2023/04/21 04:54:00;;;;;;;1.20;1.20;;;;;;;10.15;100.00;94975.50;5136011;27;20530;-58
2023/04/21 04:56:30;;;;;;;5.87;1.90;;;;;;;10.08;100.00;94978.44;5136023;27;20934;-58
2023/04/21 04:59:00;;;;;;;0.90;0.90;;;;;;;10.28;100.00;94961.66;5135809;27;21196;-58
2023/04/21 05:01:29;;;;;;;0.77;0.63;;;;;;;10.45;98.78;94967.34;5136252;27;20441;-58
2023/04/21 05:03:58;;;;;;;1.13;1.13;;;;;;;10.57;98.47;94962.50;5135356;27;20517;-58
2023/04/21 05:06:27;;;;;;;1.33;1.33;;;;;;;10.38;100.00;94969.53;5135954;27;21016;-58
2023/04/21 05:08:55;;;;;;;0.67;0.67;;;;;;;10.45;100.00;94953.31;5135530;27;20434;-58
2023/04/21 05:11:23;;;;;;;1.10;1.00;;;;;;;10.34;100.00;94970.34;5135489;27;20525;-59
2023/04/21 05:13:52;;;;;;;0.80;0.80;;;;;;;9.88;100.00;94962.66;5135721;27;20479;-58
2023/04/21 05:16:21;;;;;;;1.17;1.07;;;;;;;10.11;100.00;94979.75;5135817;27;20435;-58
2023/04/21 05:18:52;;;;;;;1.50;1.40;;;;;;;10.06;100.00;94969.19;5135678;27;20442;-58
2023/04/21 05:21:26;;;;;;;3.27;0.50;;;;;;;9.63;100.00;94968.06;5135399;27;20930;-59
2023/04/21 05:23:55;;;;;;;5.80;2.13;;;;;;;9.59;100.00;94977.59;5135224;27;20474;-59
2023/04/21 05:26:23;;;;;;;2.30;1.17;;;;;;;9.81;100.00;94979.91;5135550;27;20451;-59
2023/04/21 05:28:52;;;;;;;1.10;1.00;;;;;;;9.94;100.00;94968.72;5135861;27;20434;-59
2023/04/21 05:31:22;;;;;;;1.70;1.60;;;;;;;9.84;100.00;94905.25;5135153;27;20431;-59
2023/04/21 05:33:50;;;;;;;0.87;0.70;;;;;;;10.46;99.88;94970.78;5135147;27;20469;-59
2023/04/21 05:36:19;;;;;;;2.93;1.33;;;;;;;10.82;97.33;94969.44;5135257;27;20435;-59
2023/04/21 05:38:48;;;;;;;2.90;1.00;;;;;;;11.00;92.15;94979.34;5135157;27;20469;-59
2023/04/21 05:41:16;;;;;;;2.63;0.90;;;;;;;11.35;88.46;94971.03;5134356;27;20947;-59
2023/04/21 05:43:44;;;;;;;1.07;1.07;;;;;;;11.89;85.76;94973.34;5133752;27;20467;-59
2023/04/21 05:46:12;;;;;;;0.40;0.33;;;;;;;12.30;83.33;94973.56;5108213;27;20435;-59
2023/04/21 05:48:42;;;;;;;0.60;0.50;;;;;;;12.65;79.58;94966.94;5134660;27;20482;-58
2023/04/21 05:51:11;;;;;;;0.40;0.40;;;;;;;12.72;79.79;94959.41;5135002;27;20435;-61
2023/04/21 05:53:41;;;;;;;0.40;0.30;;;;;;;13.03;79.12;94962.34;5134439;27;20471;-58
2023/04/21 05:56:10;;;;;;;0.40;0.40;;;;;;;13.08;75.99;94956.97;5135029;27;20526;-58
2023/04/21 05:58:38;;;;;;;0.80;0.80;;;;;;;13.08;76.27;94955.06;5134971;27;20984;-59
2023/04/21 06:01:07;;;;;;;0.70;0.67;;;;;;;13.19;76.63;94945.81;5135297;27;20842;-59
2023/04/21 06:03:35;;;;;;;0.90;0.90;;;;;;;13.51;74.56;94944.19;5134322;27;20480;-59
2023/04/21 06:06:06;;;;;;;0.70;0.70;;;;;;;13.73;71.67;94941.59;5134745;27;20649;-60
2023/04/21 06:08:34;;;;;;;2.13;0.60;;;;;;;13.98;70.58;94946.41;5134773;27;20823;-60
2023/04/21 06:11:03;;;;;;;0.43;0.43;;;;;;;14.73;69.71;94938.56;5134213;27;20453;-61
2023/04/21 06:13:31;;;;;;;12.43;0.80;;;;;;;14.78;67.19;94930.44;5134109;27;20438;-60
2023/04/21 06:15:59;;;;;;;0.40;0.40;;;;;;;15.12;66.32;94929.84;5134692;27;20439;-60
2023/04/21 06:18:28;;;;;;;0.70;0.60;;;;;;;14.51;66.26;94925.25;5134452;27;20431;-60
2023/04/21 06:20:56;;;;;;;0.73;0.73;;;;;;;14.94;66.60;94931.66;5134238;27;20438;-61
2023/04/21 06:23:26;;;;;;;0.60;0.50;;;;;;;15.11;66.02;94938.94;5134476;27;20474;-61
2023/04/21 06:26:03;;;;;;;1.43;1.03;;;;;;;15.36;64.15;94934.81;5134381;27;20527;-60
2023/04/21 06:28:32;;;;;;;5.00;1.80;;;;;;;15.37;64.60;94931.06;5134266;27;20495;-60
2023/04/21 06:31:01;;;;;;;0.50;0.47;;;;;;;15.68;63.92;94931.84;5133939;27;20435;-60
2023/04/21 06:33:30;;;;;;;0.70;0.70;;;;;;;15.89;63.85;94930.16;5134325;27;20435;-60
2023/04/21 06:35:58;;;;;;;0.50;0.40;;;;;;;16.38;63.37;94937.78;5134473;27;20438;-61
2023/04/21 06:38:28;;;;;;;1.13;1.03;;;;;;;15.76;66.85;94933.75;5134546;27;20438;-61
2023/04/21 06:40:56;;;;;;;0.77;0.77;;;;;;;15.78;66.63;94936.91;5134174;27;20792;-61
2023/04/21 06:43:24;;;;;;;0.70;0.70;;;;;;;15.74;66.74;94930.59;5133962;27;20466;-61
2023/04/21 06:45:53;;;;;;;1.10;1.10;;;;;;;16.13;65.05;94930.53;5133595;27;20442;-62
2023/04/21 06:48:21;;;;;;;0.60;0.60;;;;;;;15.00;66.78;94814.91;5133465;27;20475;-62
2023/04/21 06:50:50;;;;;;;0.80;0.77;;;;;;;15.95;65.76;94936.16;5133177;27;20522;-62
2023/04/21 06:53:20;;;;;;;0.50;0.47;;;;;;;16.75;64.96;94927.53;5133229;27;20510;-62
2023/04/21 06:55:51;;;;;;;0.60;0.60;;;;;;;16.77;62.74;94926.16;5132881;27;20442;-63
2023/04/21 06:58:20;;;;;;;1.20;1.10;;;;;;;17.81;60.35;94923.94;5133930;27;20495;-62
2023/04/21 07:00:49;;;;;;;0.83;0.70;;;;;;;17.56;61.79;94918.38;5133434;27;20830;-61
2023/04/21 07:03:17;;;;;;;2.90;1.80;;;;;;;17.11;62.31;94917.25;5132918;27;20443;-60
2023/04/21 07:05:46;;;;;;;2.57;1.10;;;;;;;17.57;59.94;94911.13;5133459;27;20477;-60
2023/04/21 07:08:14;;;;;;;0.70;0.60;;;;;;;18.02;59.14;94906.75;5133379;27;20431;-60
2023/04/21 07:10:42;;;;;;;0.50;0.30;;;;;;;17.89;58.19;94837.28;5133368;27;20437;-60
2023/04/21 07:13:12;;;;;;;0.50;0.40;;;;;;;19.10;57.25;94903.00;5133116;27;20449;-61
2023/04/21 07:15:40;;;;;;;1.73;0.80;;;;;;;19.38;56.73;94903.22;5133217;27;20482;-62
2023/04/21 07:18:09;;;;;;;0.63;0.63;;;;;;;19.52;54.13;94842.66;5133332;27;20438;-64
2023/04/21 07:20:37;;;;;;;1.27;0.70;;;;;;;18.76;54.43;94909.53;5133529;27;20439;-64
2023/04/21 07:23:05;;;;;;;1.07;0.97;;;;;;;18.95;55.55;94911.72;5132953;27;20435;-64
2023/04/21 07:25:34;;;;;;;4.00;1.23;;;;;;;19.87;53.12;94904.81;5132759;27;20909;-63
2023/04/21 07:28:02;;;;;;;0.67;0.67;;;;;;;20.73;51.12;94904.31;5132841;27;21115;-63
2023/04/21 07:30:32;;;;;;;0.67;0.60;;;;;;;20.18;52.02;94783.91;5133178;27;20474;-64
2023/04/21 07:33:00;;;;;;;0.40;0.30;;;;;;;21.03;50.28;94880.47;5133292;27;20534;-65
2023/04/21 07:35:29;;;;;;;1.07;1.07;;;;;;;22.27;47.45;94889.66;5132749;27;20446;-66
2023/04/21 07:37:58;;;;;;;0.73;0.73;;;;;;;22.46;46.07;94884.31;5133300;27;20439;-67
2023/04/21 07:40:26;;;;;;;0.73;0.73;;;;;;;22.50;45.82;94868.94;5133360;27;20431;-72
2023/04/21 07:42:55;;;;;;;0.60;0.53;;;;;;;23.22;44.68;94880.78;5133152;27;20474;-74
2023/04/21 07:45:23;;;;;;;0.60;0.50;;;;;;;23.90;42.01;94886.19;5132850;27;21047;-74
2023/04/21 07:47:53;;;;;;;0.80;0.80;;;;;;;22.37;40.65;94883.72;5132822;27;20865;-72
2023/04/21 07:50:22;;;;;;;1.80;0.60;;;;;;;23.14;39.16;94822.31;5132845;27;20442;-70
2023/04/21 07:52:50;;;;;;;0.57;0.50;;;;;;;24.01;42.63;94879.00;5132720;27;20440;-69
2023/04/21 07:55:18;;;;;;;0.47;0.47;;;;;;;23.92;39.54;94881.19;5132213;27;20468;-68
2023/04/21 07:57:47;;;;;;;0.50;0.47;;;;;;;24.54;36.62;94877.03;5132983;27;20512;-67
2023/04/21 08:00:16;;;;;;;2.40;0.30;;;;;;;23.31;37.59;94878.63;5132847;27;20446;-66
2023/04/21 08:02:45;;;;;;;0.73;0.67;;;;;;;22.97;36.63;94876.06;5132585;27;20510;-65
2023/04/21 08:05:15;;;;;;;0.40;0.30;;;;;;;23.24;37.75;94873.09;5132052;27;20474;-65
2023/04/21 08:07:43;;;;;;;0.83;0.50;;;;;;;24.17;37.42;94870.75;5132600;27;20427;-64
2023/04/21 08:10:11;;;;;;;0.40;0.30;;;;;;;25.57;35.75;94867.34;5132259;27;20462;-65
2023/04/21 08:12:40;;;;;;;0.50;0.40;;;;;;;25.59;36.28;94848.75;5132912;28;20434;-64
2023/04/21 08:15:11;;;;;;;0.90;0.90;;;;;;;25.63;34.58;94863.13;5131741;28;20461;-68
2023/04/21 08:17:39;;;;;;;0.53;0.53;;;;;;;24.29;36.00;94862.41;5131836;27;20443;-65
2023/04/21 08:20:09;;;;;;;0.70;0.50;;;;;;;25.43;36.61;94857.13;5131529;28;20455;-65
2023/04/21 08:22:38;;;;;;;0.40;0.30;;;;;;;24.36;37.21;94850.88;5131845;28;20435;-68
2023/04/21 08:25:08;;;;;;;0.60;0.50;;;;;;;24.12;37.51;94846.69;5131174;28;20870;-68
2023/04/21 08:27:38;;;;;;;0.50;0.50;;;;;;;23.65;38.76;94846.34;5131591;28;20969;-66
2023/04/21 08:30:08;;;;;;;0.60;0.60;;;;;;;23.65;38.90;94849.06;5144774;28;20431;-67
2023/04/21 08:32:36;;;;;;;0.43;0.33;;;;;;;23.62;38.42;94850.56;5146461;27;20439;-65
2023/04/21 08:35:05;;;;;;;0.40;0.30;;;;;;;23.22;38.69;94840.22;5133511;28;20500;-66
2023/04/21 08:37:35;;;;;;;0.50;0.47;;;;;;;24.12;37.54;94835.06;5132520;27;20441;-66
2023/04/21 08:40:07;;;;;;;1.23;0.50;;;;;;;23.30;37.78;94843.84;5132059;28;20445;-65
2023/04/21 08:42:35;;;;;;;0.50;0.50;;;;;;;23.62;37.23;94837.03;5132290;28;20506;-64
2023/04/21 08:45:05;;;;;;;0.40;0.40;;;;;;;22.84;38.54;94834.13;5132197;28;20515;-63
2023/04/21 08:47:33;;;;;;;0.40;0.40;;;;;;;22.58;38.15;94832.84;5131841;28;20492;-63
2023/04/21 08:50:02;;;;;;;0.77;0.77;;;;;;;23.00;37.61;94834.78;5132400;28;20537;-63
2023/04/21 08:52:30;;;;;;;0.87;0.87;;;;;;;24.13;35.76;94826.59;5131804;27;20431;-65
2023/04/21 08:55:00;;;;;;;2.53;0.60;;;;;;;24.67;38.88;94809.06;5132256;28;20445;-64
2023/04/21 08:57:30;;;;;;;0.50;0.50;;;;;;;24.52;37.26;94813.53;5131854;27;20519;-66
2023/04/21 08:59:58;;;;;;;0.40;0.30;;;;;;;24.57;36.97;94802.38;5132449;27;20443;-67
2023/04/21 09:02:26;;;;;;;6.73;0.60;;;;;;;23.28;38.08;94814.44;5132246;28;20846;-67
2023/04/21 09:04:55;;;;;;;1.33;0.60;;;;;;;23.83;36.92;94813.00;5132096;27;20561;-66
2023/04/21 09:07:31;;;;;;;0.50;0.40;;;;;;;24.69;36.34;94810.25;5105349;28;21029;-66
2023/04/21 09:10:01;;;;;;;0.50;0.50;;;;;;;23.04;36.26;94759.97;5131908;28;20804;-66
2023/04/21 09:12:30;;;;;;;0.60;0.60;;;;;;;23.81;35.19;94803.66;5122883;28;20440;-66
2023/04/21 09:14:59;;;;;;;0.50;0.30;;;;;;;24.57;34.52;94802.38;5128967;27;20448;-65
2023/04/21 09:17:32;;;;;;;1.00;0.80;;;;;;;24.32;34.15;94764.16;5136105;27;20525;-65
2023/04/21 09:20:14;;;;;;;0.97;0.97;;;;;;;25.36;33.17;94797.38;5135338;27;20525;-65
2023/04/21 09:22:42;;;;;;;0.70;0.50;;;;;;;25.94;32.49;94796.63;5135329;27;20514;-64
2023/04/21 09:25:16;;;;;;;1.00;0.50;;;;;;;26.67;33.61;94784.56;5135416;27;21083;-63
2023/04/21 09:27:46;;;;;;;0.50;0.43;;;;;;;26.65;31.51;94781.47;5134894;27;20435;-63
2023/04/21 09:30:19;;;;;;;0.60;0.40;;;;;;;27.81;30.66;94776.16;5135716;27;20882;-63
2023/04/21 09:32:47;;;;;;;3.80;1.00;;;;;;;27.39;31.80;94768.81;5135618;27;21024;-62
2023/04/21 09:35:15;;;;;;;0.50;0.40;;;;;;;27.46;30.27;94771.53;5125575;27;20455;-61
2023/04/21 09:37:44;;;;;;;0.50;0.40;;;;;;;26.02;30.58;94773.81;5132206;27;20431;-61
2023/04/21 09:40:14;;;;;;;0.70;0.70;;;;;;;25.83;30.74;94769.44;5124446;27;20523;-62
2023/04/21 09:42:43;;;;;;;0.80;0.47;;;;;;;26.07;30.27;94763.34;5132734;27;20454;-61
2023/04/21 09:45:15;;;;;;;0.70;0.60;;;;;;;27.23;29.85;94762.94;5134961;27;20466;-60
2023/04/21 09:48:06;;;;;;;0.70;0.50;;;;;;;27.70;30.12;94743.50;5123064;27;20946;-60
2023/04/21 09:50:35;;;;;;;0.60;0.60;;;;;;;27.98;28.08;94753.53;5134969;27;20435;-60
2023/04/21 09:53:16;;;;;;;0.90;0.60;;;;;;;26.15;28.82;94754.13;5124244;27;20455;-61
2023/04/21 09:55:47;;;;;;;0.47;0.43;;;;;;;26.15;28.55;94747.91;5132881;27;20446;-60
2023/04/21 09:58:18;;;;;;;0.60;0.40;;;;;;;27.85;30.57;94738.03;5134827;27;20468;-60
2023/04/21 10:00:49;;;;;;;0.70;0.57;;;;;;;27.45;30.30;94736.53;5134367;27;20951;-60
2023/04/21 10:03:20;;;;;;;0.50;0.40;;;;;;;27.98;28.55;94729.03;5134033;27;20446;-60
2023/04/21 10:05:48;;;;;;;0.70;0.67;;;;;;;26.89;28.19;94737.28;5134611;27;20475;-60
2023/04/21 10:08:17;;;;;;;5.30;0.70;;;;;;;25.97;29.02;94730.72;5134943;27;20431;-60
2023/04/21 10:10:46;;;;;;;0.47;0.40;;;;;;;24.72;27.58;94739.03;5134505;27;20442;-61
2023/04/21 10:13:17;;;;;;;3.80;0.50;;;;;;;24.98;28.43;94673.88;5134067;27;20471;-61
2023/04/21 10:15:47;;;;;;;0.67;0.67;;;;;;;25.53;28.20;94711.84;5134597;27;20438;-60
2023/04/21 10:18:17;;;;;;;0.40;0.33;;;;;;;26.30;26.46;94706.81;5134121;27;20476;-60
2023/04/21 10:20:53;;;;;;;0.50;0.40;;;;;;;26.92;25.61;94731.03;5134539;27;20470;-60
2023/04/21 10:23:33;;;;;;;0.40;0.30;;;;;;;27.98;25.79;94725.53;5133912;27;20934;-60
2023/04/21 10:26:08;;;;;;;1.83;0.30;;;;;;;28.33;25.97;94717.25;5133341;27;20496;-60
2023/04/21 10:28:44;;;;;;;0.70;0.70;;;;;;;28.55;25.17;94718.69;5134359;27;20542;-63
2023/04/21 10:31:28;;;;;;;0.40;0.40;;;;;;;25.41;26.22;94715.63;5120910;27;20484;-62
2023/04/21 10:34:17;;;;;;;0.50;0.40;;;;;;;24.94;27.07;94727.28;5134071;27;20566;-65
2023/04/21 10:37:16;;;;;;;0.60;0.43;;;;;;;23.77;27.42;94725.16;5133898;27;20444;-69
2023/04/21 10:39:51;;;;;;;0.37;0.27;;;;;;;23.20;27.90;94730.84;5088602;27;20449;-70
2023/04/21 10:42:23;;;;;;;0.50;0.50;;;;;;;23.19;26.94;94735.50;5134066;27;20442;-64
2023/04/21 10:44:53;;;;;;;0.60;0.50;;;;;;;23.81;27.17;94720.56;5134152;27;20808;-64
2023/04/21 10:47:30;;;;;;;0.63;0.63;;;;;;;24.50;27.59;94727.22;5133800;27;20470;-63
2023/04/21 10:49:59;;;;;;;0.40;0.20;;;;;;;26.47;27.00;94714.25;5135499;27;20430;-67
2023/04/21 10:52:33;;;;;;;0.50;0.40;;;;;;;25.96;27.05;94691.91;5133687;27;20533;-66
2023/04/21 10:55:12;;;;;;;0.40;0.40;;;;;;;25.04;28.09;94723.88;5133816;27;20463;-64
2023/04/21 10:57:44;;;;;;;0.50;0.50;;;;;;;25.78;29.89;94729.06;5133507;27;20526;-63
2023/04/21 11:00:16;;;;;;;0.40;0.37;;;;;;;25.42;30.54;94725.34;5133565;27;20434;-63
2023/04/21 11:02:54;;;;;;;0.30;0.20;;;;;;;24.70;33.64;94735.13;5133217;27;20443;-63
2023/04/21 11:05:33;;;;;;;0.40;0.40;;;;;;;23.80;31.46;94691.97;5133061;27;20430;-62
2023/04/21 11:08:13;;;;;;;0.73;0.73;;;;;;;23.27;31.18;94737.19;5134050;27;20852;-63
2023/04/21 11:10:46;;;;;;;7.00;0.80;;;;;;;23.32;29.41;94738.78;5133452;27;20965;-60
2023/04/21 11:13:15;;;;;;;0.60;0.50;;;;;;;23.15;30.61;94734.66;5132761;27;20958;-59
2023/04/21 11:15:56;;;;;;;0.30;0.20;;;;;;;23.12;31.91;94732.66;5133308;27;20453;-58
2023/04/21 11:18:36;;;;;;;0.50;0.30;;;;;;;23.55;30.74;94736.84;5133145;27;20438;-58
2023/04/21 11:21:09;;;;;;;0.50;0.30;;;;;;;23.20;32.33;94704.59;5133025;27;20974;-57
2023/04/21 11:23:41;;;;;;;0.50;0.50;;;;;;;23.33;34.07;94735.72;5108001;27;20514;-58
2023/04/21 11:26:10;;;;;;;1.50;0.40;;;;;;;24.54;33.46;94711.75;5132248;27;20531;-60
2023/04/21 11:28:40;;;;;;;7.37;0.60;;;;;;;25.45;32.69;94724.59;5133179;27;20480;-62
2023/04/21 11:31:09;;;;;;;0.40;0.30;;;;;;;25.36;31.39;94726.03;5132804;27;20462;-62
2023/04/21 11:33:39;;;;;;;0.53;0.50;;;;;;;23.92;33.24;94734.25;5133422;27;20438;-62
2023/04/21 11:36:08;;;;;;;0.50;0.40;;;;;;;24.83;33.01;94728.34;5132673;27;20518;-62
2023/04/21 11:38:40;;;;;;;0.70;0.70;;;;;;;26.16;31.60;94736.63;5132632;27;20525;-65
2023/04/21 11:41:09;;;;;;;0.50;0.50;;;;;;;24.35;31.92;94727.44;5132714;27;20517;-65
2023/04/21 11:43:38;;;;;;;0.90;0.90;;;;;;;24.39;31.73;94737.16;5132578;27;20478;-65
2023/04/21 11:46:16;;;;;;;0.50;0.40;;;;;;;23.46;33.21;94684.13;5132844;27;20482;-63
2023/04/21 11:48:46;;;;;;;0.50;0.40;;;;;;;25.11;32.25;94728.59;5132150;27;20431;-63